Time;durP1;ratioP1;P1;durP2;ratioP2;P2;SDS_P1;SDS_P2;PMS_P1;PMS_P2;Temp;Humidity;BMP_temperature;BMP_pressure;BME280_temperature;BME280_humidity;BME280_pressure;Samples;Min_cycle;Max_cycle;Signal;HPM_P1;HPM_P2
2023/03/25 00:01:53;;;;;;;;;;;;;;;9.47;65.67;99543.31;5032796;28;19936;-83
2023/03/25 00:04:18;;;;;;;;;;;;;;;9.58;65.86;99538.78;5034771;28;19920;-83
2023/03/25 00:06:44;;;;;;;;;;;;;;;9.44;66.37;99527.56;5033705;28;19919;-83
2023/03/25 00:09:10;;;;;;;;;;;;;;;9.38;66.32;99523.25;5033958;28;20398;-83
2023/03/25 00:11:35;;;;;;;;;;;;;;;9.40;66.12;99521.44;5017881;28;19917;-84
2023/03/25 00:14:00;;;;;;;;;;;;;;;9.21;67.42;99517.31;5033880;28;19963;-85
2023/03/25 00:16:26;;;;;;;;;;;;;;;9.27;67.09;99523.38;5033904;28;19920;-84
2023/03/25 00:18:51;;;;;;;;;;;;;;;9.10;68.10;99523.59;5033988;28;19917;-84
2023/03/25 00:21:17;;;;;;;;;;;;;;;9.29;67.31;99518.94;5033207;28;19964;-84
2023/03/25 00:23:43;;;;;;;;;;;;;;;9.21;67.19;99527.84;5018663;28;19922;-84
2023/03/25 00:26:08;;;;;;;;;;;;;;;8.88;67.86;99522.97;5013733;28;19921;-84
2023/03/25 00:28:35;;;;;;;;;;;;;;;8.89;68.22;99518.56;5013992;28;19913;-83
2023/03/25 00:31:02;;;;;;;;;;;;;;;8.91;68.54;99525.56;5013833;28;19975;-84
2023/03/25 00:33:28;;;;;;;;;;;;;;;8.94;68.69;99516.75;5014118;28;19917;-85
2023/03/25 00:35:57;;;;;;;;;;;;;;;8.87;68.36;99521.22;5013488;28;19921;-84
2023/03/25 00:38:24;;;;;;;;;;;;;;;9.01;67.88;99523.69;5016976;28;20310;-84
2023/03/25 00:40:51;;;;;;;;;;;;;;;8.93;68.24;99521.16;5032377;28;19924;-85
2023/03/25 00:43:17;;;;;;;;;;;;;;;8.99;68.25;99522.84;5035185;28;20310;-84
2023/03/25 00:45:42;;;;;;;;;;;;;;;9.00;68.29;99514.03;5013265;28;20008;-84
2023/03/25 00:48:07;;;;;;;;;;;;;;;8.91;68.09;99507.16;5012777;28;19913;-84
2023/03/25 00:50:33;;;;;;;;;;;;;;;8.88;68.71;99507.19;5013582;28;19914;-84
2023/03/25 00:52:58;;;;;;;;;;;;;;;8.97;68.43;99506.19;5014517;28;20328;-84
2023/03/25 00:55:23;;;;;;;;;;;;;;;9.04;68.40;99499.97;5028007;28;19929;-84
2023/03/25 00:57:49;;;;;;;;;;;;;;;9.23;67.29;99505.00;5013107;28;19913;-84
2023/03/25 01:00:15;;;;;;;;;;;;;;;9.15;67.69;99491.94;5012473;28;20000;-84
2023/03/25 01:02:41;;;;;;;;;;;;;;;9.19;66.88;99505.94;5012923;28;19913;-85
2023/03/25 01:05:09;;;;;;;;;;;;;;;9.09;67.15;99499.91;5028188;28;20400;-84
2023/03/25 01:07:34;;;;;;;;;;;;;;;9.12;67.15;99499.88;5012961;28;19913;-85
2023/03/25 01:10:00;;;;;;;;;;;;;;;9.02;67.35;99496.50;5025770;28;20122;-85
2023/03/25 01:12:26;;;;;;;;;;;;;;;9.01;67.02;99492.13;5032513;28;19913;-85
2023/03/25 01:14:52;;;;;;;;;;;;;;;8.88;67.29;99495.75;5030869;28;20351;-84
2023/03/25 01:17:17;;;;;;;;;;;;;;;8.83;67.27;99494.94;5032323;28;19920;-84
2023/03/25 01:19:43;;;;;;;;;;;;;;;8.75;68.06;99495.03;5030118;28;20295;-84
2023/03/25 01:22:08;;;;;;;;;;;;;;;8.78;67.76;99492.38;5032711;28;19920;-82
2023/03/25 01:24:34;;;;;;;;;;;;;;;8.81;67.38;99488.84;5032271;28;19917;-82
2023/03/25 01:26:59;;;;;;;;;;;;;;;8.82;67.60;99498.47;5031970;28;20457;-82
2023/03/25 01:29:25;;;;;;;;;;;;;;;8.81;67.28;99486.22;5030043;28;19921;-83
2023/03/25 01:31:50;;;;;;;;;;;;;;;8.86;66.62;99489.66;5031633;28;20315;-83
2023/03/25 01:34:16;;;;;;;;;;;;;;;8.67;67.04;99489.84;5032097;28;19956;-83
2023/03/25 01:36:45;;;;;;;;;;;;;;;8.55;67.82;99482.09;5031964;28;20832;-83
2023/03/25 01:39:11;;;;;;;;;;;;;;;8.58;67.96;99474.19;5030375;28;19976;-83
2023/03/25 01:41:37;;;;;;;;;;;;;;;8.53;67.94;99468.97;5031524;28;19913;-83
2023/03/25 01:44:22;;;;;;;;;;;;;;;8.44;68.18;99463.81;5030667;28;20362;-83
2023/03/25 01:46:51;;;;;;;;;;;;;;;8.52;67.67;99458.47;5049272;28;19964;-83
2023/03/25 01:49:31;;;;;;;;;;;;;;;8.50;67.49;99462.88;5049040;28;19916;-83
2023/03/25 01:52:00;;;;;;;;;;;;;;;8.33;68.67;99458.63;5030580;28;19927;-83
2023/03/25 01:54:26;;;;;;;;;;;;;;;8.30;68.58;99455.16;5029410;28;19960;-83
2023/03/25 01:56:52;;;;;;;;;;;;;;;8.39;68.20;99455.06;5029558;28;19913;-83
2023/03/25 01:59:19;;;;;;;;;;;;;;;8.44;68.47;99447.16;5046302;28;20327;-83
2023/03/25 02:01:45;;;;;;;;;;;;;;;8.42;68.52;99439.28;5039961;28;19917;-84
2023/03/25 02:04:12;;;;;;;;;;;;;;;8.33;69.46;99439.38;5049560;28;19998;-84
2023/03/25 02:06:41;;;;;;;;;;;;;;;8.44;69.16;99439.28;5039502;28;19980;-84
2023/03/25 02:09:08;;;;;;;;;;;;;;;8.46;69.59;99433.09;5029275;28;19912;-84
2023/03/25 02:11:34;;;;;;;;;;;;;;;8.64;68.31;99439.06;5019010;28;20421;-84
2023/03/25 02:14:02;;;;;;;;;;;;;;;8.32;68.65;99433.22;5029427;28;20043;-83
2023/03/25 02:16:51;;;;;;;;;;;;;;;8.23;68.92;99430.69;5028843;28;19959;-83
2023/03/25 02:19:34;;;;;;;;;;;;;;;8.19;69.47;99421.97;5029046;28;19913;-83
2023/03/25 02:22:19;;;;;;;;;;;;;;;8.29;68.83;99425.34;5028563;28;19917;-83
2023/03/25 02:24:44;;;;;;;;;;;;;;;8.41;69.01;99433.13;4996893;28;19921;-84
2023/03/25 02:27:26;;;;;;;;;;;;;;;7.91;70.84;99437.09;5003968;28;19914;-83
2023/03/25 02:29:57;;;;;;;;;;;;;;;7.59;73.37;99439.97;5011008;28;19961;-83
2023/03/25 02:32:38;;;;;;;;;;;;;;;7.57;73.44;99429.50;5011768;28;19913;-83
2023/03/25 02:35:15;;;;;;;;;;;;;;;7.80;73.88;99436.31;5011099;28;19918;-82
2023/03/25 02:37:59;;;;;;;;;;;;;;;7.89;73.76;99428.34;5011276;28;19923;-83
2023/03/25 02:40:26;;;;;;;;;;;;;;;8.11;72.67;99426.44;5025806;28;19952;-84
2023/03/25 02:43:00;;;;;;;;;;;;;;;8.11;72.38;99425.53;5017536;28;19986;-82
2023/03/25 02:45:30;;;;;;;;;;;;;;;8.10;71.82;99423.81;5022893;28;20449;-83
2023/03/25 02:48:01;;;;;;;;;;;;;;;7.97;70.67;99421.28;5030809;28;19932;-82
2023/03/25 02:50:33;;;;;;;;;;;;;;;8.07;68.64;99422.94;5025991;28;19920;-83
2023/03/25 02:53:00;;;;;;;;;;;;;;;7.70;69.54;99423.25;5011912;28;19979;-83
2023/03/25 02:55:29;;;;;;;;;;;;;;;7.76;69.63;99419.72;5012699;28;19914;-83
2023/03/25 02:57:56;;;;;;;;;;;;;;;7.86;69.32;99425.75;4992626;28;19922;-82
2023/03/25 03:00:23;;;;;;;;;;;;;;;7.74;69.37;99420.59;5011423;28;19913;-82
2023/03/25 03:03:07;;;;;;;;;;;;;;;7.78;69.58;99419.69;5011278;28;19933;-83
2023/03/25 03:05:47;;;;;;;;;;;;;;;7.76;69.78;99427.59;5011159;28;19913;-83
2023/03/25 03:08:31;;;;;;;;;;;;;;;7.88;70.14;99419.63;4992020;28;20000;-83
2023/03/25 03:11:15;;;;;;;;;;;;;;;7.95;69.46;99407.28;5030685;28;20008;-83
2023/03/25 03:13:46;;;;;;;;;;;;;;;7.85;69.06;99405.66;5030756;28;20027;-83
2023/03/25 03:16:30;;;;;;;;;;;;;;;7.65;69.36;99395.31;5031069;28;19913;-82
2023/03/25 03:19:12;;;;;;;;;;;;;;;7.21;70.16;99392.09;5028670;28;20011;-82
2023/03/25 03:21:53;;;;;;;;;;;;;;;7.29;70.93;99390.31;5011052;28;19951;-82
2023/03/25 03:24:27;;;;;;;;;;;;;;;7.31;70.49;99388.53;5010991;28;19924;-82
2023/03/25 03:27:05;;;;;;;;;;;;;;;7.35;70.64;99390.28;5010679;28;20391;-82
2023/03/25 03:29:35;;;;;;;;;;;;;;;7.42;70.85;99391.09;5011381;28;19917;-82
2023/03/25 03:32:00;;;;;;;;;;;;;;;7.39;70.88;99390.25;5030381;28;20003;-82
2023/03/25 03:34:41;;;;;;;;;;;;;;;7.26;71.03;99389.44;5033114;28;20355;-83
2023/03/25 03:37:09;;;;;;;;;;;;;;;7.34;71.34;99390.28;5034055;28;19970;-82
2023/03/25 03:39:35;;;;;;;;;;;;;;;7.50;70.99;99383.16;5031563;28;19916;-82
2023/03/25 03:42:12;;;;;;;;;;;;;;;7.20;71.89;99389.47;5027181;28;20051;-83
2023/03/25 03:44:40;;;;;;;;;;;;;;;7.42;71.42;99384.97;5022263;28;20003;-83
2023/03/25 03:47:11;;;;;;;;;;;;;;;7.49;71.25;99386.66;5033987;28;19913;-83
2023/03/25 03:49:45;;;;;;;;;;;;;;;7.44;71.87;99386.69;5034300;28;19913;-83
2023/03/25 03:52:13;;;;;;;;;;;;;;;7.40;72.61;99390.25;5034008;28;20402;-84
2023/03/25 03:54:47;;;;;;;;;;;;;;;7.46;71.75;99392.81;5033663;28;19924;-83
2023/03/25 03:57:12;;;;;;;;;;;;;;;7.41;72.36;99389.34;5033815;28;19913;-83
2023/03/25 03:59:56;;;;;;;;;;;;;;;7.23;72.96;99397.31;5033087;28;20059;-84
2023/03/25 04:02:40;;;;;;;;;;;;;;;7.25;73.46;99391.19;5032544;28;20295;-85
2023/03/25 04:05:07;;;;;;;;;;;;;;;7.34;73.31;99388.50;5033822;28;20395;-84
2023/03/25 04:07:42;;;;;;;;;;;;;;;7.31;73.96;99383.28;5030940;28;20020;-83
2023/03/25 04:10:07;;;;;;;;;;;;;;;7.39;73.66;99382.38;5045884;28;19914;-82
2023/03/25 04:12:38;;;;;;;;;;;;;;;7.40;72.97;99386.72;5030816;28;19971;-82
2023/03/25 04:15:04;;;;;;;;;;;;;;;7.45;72.52;99380.56;5033263;28;19913;-82
2023/03/25 04:17:31;;;;;;;;;;;;;;;7.37;72.94;99387.63;5033363;28;20448;-82
2023/03/25 04:19:57;;;;;;;;;;;;;;;7.48;72.22;99387.56;5032740;28;19924;-82
2023/03/25 04:22:23;;;;;;;;;;;;;;;7.53;72.05;99388.38;5032348;28;19925;-83
2023/03/25 04:24:48;;;;;;;;;;;;;;;7.55;71.70;99391.00;5033303;28;19935;-84
2023/03/25 04:27:18;;;;;;;;;;;;;;;7.34;71.06;99385.88;5033338;28;20016;-83
2023/03/25 04:29:46;;;;;;;;;;;;;;;7.39;71.10;99391.09;5032040;28;19978;-83
2023/03/25 04:32:12;;;;;;;;;;;;;;;7.37;71.62;99392.00;5031609;28;19913;-84
2023/03/25 04:34:37;;;;;;;;;;;;;;;7.45;71.09;99392.81;5013541;28;19924;-84
2023/03/25 04:37:03;;;;;;;;;;;;;;;7.42;70.90;99392.84;4996727;28;19913;-84
2023/03/25 04:39:31;;;;;;;;;;;;;;;7.66;70.68;99399.66;5008178;28;19917;-84
2023/03/25 04:41:56;;;;;;;;;;;;;;;7.65;70.60;99405.81;5019008;28;19917;-83
2023/03/25 04:44:24;;;;;;;;;;;;;;;7.51;70.51;99403.28;5030766;28;19917;-83
2023/03/25 04:46:50;;;;;;;;;;;;;;;7.61;70.91;99404.06;5032942;28;19917;-84
2023/03/25 04:49:17;;;;;;;;;;;;;;;7.61;69.55;99404.94;5033426;28;19987;-83
2023/03/25 04:51:48;;;;;;;;;;;;;;;7.34;69.85;99409.50;5032013;28;19987;-82
2023/03/25 04:54:13;;;;;;;;;;;;;;;7.37;70.29;99416.50;5031967;28;20007;-83
2023/03/25 04:56:39;;;;;;;;;;;;;;;7.30;71.08;99412.16;5033160;28;20390;-83
2023/03/25 04:59:05;;;;;;;;;;;;;;;7.32;71.15;99411.28;5032648;28;20275;-83
2023/03/25 05:01:30;;;;;;;;;;;;;;;7.30;71.91;99418.28;5018110;28;19921;-83
2023/03/25 05:04:03;;;;;;;;;;;;;;;7.43;72.14;99419.09;5012479;28;19913;-83
2023/03/25 05:06:29;;;;;;;;;;;;;;;7.56;71.92;99416.38;5012946;28;20006;-83
2023/03/25 05:08:54;;;;;;;;;;;;;;;7.48;72.62;99416.44;5020428;28;19956;-84
2023/03/25 05:11:19;;;;;;;;;;;;;;;7.59;73.44;99409.34;5032070;28;19921;-83
2023/03/25 05:13:45;;;;;;;;;;;;;;;7.54;74.39;99408.50;5021152;28;19946;-83
2023/03/25 05:16:10;;;;;;;;;;;;;;;7.79;74.34;99408.31;5012362;28;20311;-82
2023/03/25 05:18:35;;;;;;;;;;;;;;;7.92;74.74;99402.06;5012595;28;20003;-82
2023/03/25 05:21:01;;;;;;;;;;;;;;;8.11;74.56;99404.50;5012220;28;19913;-82
2023/03/25 05:23:27;;;;;;;;;;;;;;;8.25;74.50;99400.88;5013557;28;19989;-82
2023/03/25 05:25:52;;;;;;;;;;;;;;;8.38;74.06;99406.88;5012475;28;19913;-82
2023/03/25 05:28:18;;;;;;;;;;;;;;;8.53;73.05;99403.25;5012654;28;19964;-82
2023/03/25 05:30:44;;;;;;;;;;;;;;;8.59;72.95;99403.16;5012275;28;20354;-82
2023/03/25 05:33:12;;;;;;;;;;;;;;;8.81;73.14;99397.66;5011499;28;19972;-83
2023/03/25 05:35:38;;;;;;;;;;;;;;;9.02;72.13;99396.50;5005614;28;19918;-82
2023/03/25 05:38:04;;;;;;;;;;;;;;;9.09;71.78;99403.41;5012039;28;20012;-82
2023/03/25 05:40:29;;;;;;;;;;;;;;;9.29;71.45;99400.50;5011729;28;20367;-82
2023/03/25 05:42:55;;;;;;;;;;;;;;;9.42;71.20;99401.22;5015015;28;20384;-82
2023/03/25 05:45:20;;;;;;;;;;;;;;;9.81;70.49;99395.34;5011787;28;19974;-81
2023/03/25 05:47:46;;;;;;;;;;;;;;;9.96;70.47;99402.09;5012081;28;19963;-84
2023/03/25 05:50:13;;;;;;;;;;;;;;;10.33;69.11;99396.19;5012155;28;19925;-82
2023/03/25 05:52:40;;;;;;;;;;;;;;;10.29;68.21;99399.78;5011824;28;19920;-83
2023/03/25 05:55:06;;;;;;;;;;;;;;;10.77;68.00;99386.56;5013237;28;19921;-83
2023/03/25 05:57:31;;;;;;;;;;;;;;;11.10;65.93;99389.38;5042591;28;19917;-84
2023/03/25 05:59:57;;;;;;;;;;;;;;;10.93;65.30;99395.88;5011849;28;19971;-83
2023/03/25 06:02:22;;;;;;;;;;;;;;;11.45;64.93;99398.28;5011813;28;19936;-84
2023/03/25 06:04:49;;;;;;;;;;;;;;;11.65;64.16;99396.00;5012674;28;19925;-86
2023/03/25 06:07:21;;;;;;;;;;;;;;;11.79;63.29;99389.53;5010497;28;20347;-84
2023/03/25 06:09:47;;;;;;;;;;;;;;;12.16;61.96;99396.56;5011691;28;19964;-83
2023/03/25 06:12:13;;;;;;;;;;;;;;;12.25;61.18;99393.66;5025264;28;19917;-83
2023/03/25 06:14:41;;;;;;;;;;;;;;;12.41;60.51;99395.91;5023853;28;20371;-87
2023/03/25 06:17:07;;;;;;;;;;;;;;;12.57;60.54;99394.56;5019582;28;19920;-86
2023/03/25 06:19:37;;;;;;;;;;;;;;;12.78;59.08;99390.44;5015131;28;20379;-87
2023/03/25 06:22:03;;;;;;;;;;;;;;;12.84;59.59;99392.91;5043466;28;19909;-84
2023/03/25 06:24:28;;;;;;;;;;;;;;;13.11;58.18;99389.50;5011152;28;19918;-86
2023/03/25 06:26:54;;;;;;;;;;;;;;;13.13;58.89;99391.19;5011425;28;19913;-82
2023/03/25 06:29:19;;;;;;;;;;;;;;;13.34;57.04;99383.50;5010961;28;19917;-83
2023/03/25 06:31:44;;;;;;;;;;;;;;;13.44;56.57;99387.63;5007614;28;20008;-83
2023/03/25 06:34:10;;;;;;;;;;;;;;;13.81;56.27;99389.09;5007476;28;20442;-82
2023/03/25 06:36:35;;;;;;;;;;;;;;;13.86;56.36;99381.84;5011406;28;19925;-89
2023/03/25 06:39:00;;;;;;;;;;;;;;;14.09;55.58;99382.84;5003793;28;19979;-87
2023/03/25 06:41:26;;;;;;;;;;;;;;;14.44;54.33;99384.25;5009568;28;20004;-89
2023/03/25 06:43:51;;;;;;;;;;;;;;;14.70;56.74;99374.50;5012351;28;20419;-88
2023/03/25 06:46:16;;;;;;;;;;;;;;;15.16;54.92;99380.72;5006204;28;19921;-91
2023/03/25 06:48:42;;;;;;;;;;;;;;;14.95;54.06;99379.78;5007885;28;19918;-90
2023/03/25 06:51:07;;;;;;;;;;;;;;;14.68;52.87;99381.66;5007728;28;20367;-93
2023/03/25 06:53:32;;;;;;;;;;;;;;;14.57;52.53;99375.84;5009677;28;19917;-93
2023/03/25 06:55:58;;;;;;;;;;;;;;;14.82;53.25;99378.50;5013515;28;19920;-94
2023/03/25 06:58:23;;;;;;;;;;;;;;;15.42;52.87;99376.19;5037195;28;20020;-92
2023/03/25 07:00:52;;;;;;;;;;;;;;;16.05;53.30;99384.25;5024410;28;19917;-93
2023/03/25 07:03:17;;;;;;;;;;;;;;;15.89;51.09;99376.03;5012844;28;19968;-89
2023/03/25 07:05:43;;;;;;;;;;;;;;;16.60;49.52;99372.13;5010642;28;19960;-91
2023/03/25 07:08:08;;;;;;;;;;;;;;;16.27;48.05;99378.03;5022376;28;20101;-90
2023/03/25 07:10:33;;;;;;;;;;;;;;;16.69;49.02;99377.03;5011480;28;19918;-92
2023/03/25 07:12:59;;;;;;;;;;;;;;;17.30;45.57;99364.47;5012733;28;19921;-90
2023/03/25 07:15:24;;;;;;;;;;;;;;;16.29;48.36;99368.16;5004221;28;19922;-90
2023/03/25 07:17:50;;;;;;;;;;;;;;;16.90;45.95;99367.25;5040782;28;19972;-93
2023/03/25 07:20:15;;;;;;;;;;;;;;;17.15;47.22;99364.28;5010083;28;19976;-93
2023/03/25 07:22:40;;;;;;;;;;;;;;;17.27;44.26;99365.50;5030818;28;20000;-92
2023/03/25 07:25:06;;;;;;;;;;;;;;;16.11;47.22;99375.13;5016573;28;19913;-93
2023/03/25 07:27:31;;;;;;;;;;;;;;;16.62;47.61;99367.59;5030796;28;19985;-92
2023/03/25 07:29:57;;;;;;;;;;;;;;;17.29;48.64;99360.13;5030719;28;19917;-89
2023/03/25 07:32:22;;;;;;;;;;;;;;;16.97;43.63;99363.34;5010556;28;19913;-89
2023/03/25 07:34:47;;;;;;;;;;;;;;;17.02;43.73;99352.47;5012306;28;19922;-90
2023/03/25 07:37:13;;;;;;;;;;;;;;;17.30;43.26;99354.72;5014707;28;19917;-90
2023/03/25 07:39:38;;;;;;;;;;;;;;;16.87;44.55;99356.72;5013453;28;19989;-91
2023/03/25 07:42:05;;;;;;;;;;;;;;;16.92;45.26;99357.38;5020849;28;19921;-92
2023/03/25 07:44:30;;;;;;;;;;;;;;;16.82;45.40;99353.38;5020006;28;20051;-90
2023/03/25 07:46:55;;;;;;;;;;;;;;;17.56;44.74;99346.38;5044220;28;19925;-89
2023/03/25 07:49:21;;;;;;;;;;;;;;;18.29;46.66;99340.91;5029765;28;19913;-86
2023/03/25 07:51:46;;;;;;;;;;;;;;;18.25;44.25;99341.09;4994342;28;19913;-85
2023/03/25 07:54:11;;;;;;;;;;;;;;;18.06;42.82;99343.00;4994501;28;19921;-87
2023/03/25 07:56:37;;;;;;;;;;;;;;;18.08;44.06;99344.63;4997553;28;19914;-84
2023/03/25 07:59:03;;;;;;;;;;;;;;;18.12;42.28;99348.03;5014102;28;19967;-87
2023/03/25 08:01:28;;;;;;;;;;;;;;;18.66;42.52;99337.19;5011902;28;20008;-87
2023/03/25 08:03:53;;;;;;;;;;;;;;;19.01;42.45;99338.88;5020294;28;19956;-85
2023/03/25 08:06:19;;;;;;;;;;;;;;;18.94;40.66;99327.69;5012861;28;20508;-85
2023/03/25 08:08:44;;;;;;;;;;;;;;;18.46;40.58;99340.03;5015135;28;20288;-86
2023/03/25 08:11:10;;;;;;;;;;;;;;;18.53;40.91;99322.75;5020456;28;19920;-86
2023/03/25 08:13:35;;;;;;;;;;;;;;;18.71;39.81;99321.75;5033634;28;19913;-87
2023/03/25 08:16:01;;;;;;;;;;;;;;;18.75;40.12;99317.97;5032446;28;19940;-86
2023/03/25 08:18:26;;;;;;;;;;;;;;;18.63;42.57;99315.97;5027275;28;19925;-86
2023/03/25 08:20:52;;;;;;;;;;;;;;;18.92;41.29;99319.75;5028110;28;20750;-86
2023/03/25 08:23:18;;;;;;;;;;;;;;;18.89;41.64;99311.91;5010189;28;19979;-86
2023/03/25 08:25:47;;;;;;;;;;;;;;;18.86;41.13;99311.19;5013254;28;19941;-86
2023/03/25 08:28:16;;;;;;;;;;;;;;;18.73;41.86;99317.19;5005453;28;19981;-87
2023/03/25 08:30:41;;;;;;;;;;;;;;;19.02;42.66;99317.41;5006717;28;20012;-86
2023/03/25 08:33:08;;;;;;;;;;;;;;;19.04;41.89;99314.66;5012665;28;20005;-87
2023/03/25 08:35:35;;;;;;;;;;;;;;;19.62;41.84;99315.81;5012771;28;19920;-87
2023/03/25 08:38:04;;;;;;;;;;;;;;;19.61;41.81;99319.44;5012512;28;20358;-87
2023/03/25 08:40:29;;;;;;;;;;;;;;;19.96;41.38;99321.91;5013240;28;20333;-87
2023/03/25 08:42:54;;;;;;;;;;;;;;;19.81;40.37;99321.81;5012642;28;19924;-87
2023/03/25 08:45:20;;;;;;;;;;;;;;;19.78;39.53;99313.97;5012747;28;20032;-87
2023/03/25 08:47:45;;;;;;;;;;;;;;;19.94;39.71;99305.03;5012973;28;20004;-87
2023/03/25 08:50:11;;;;;;;;;;;;;;;19.70;39.81;99313.56;5012072;28;19967;-86
2023/03/25 08:52:36;;;;;;;;;;;;;;;19.68;40.29;99310.13;5009589;28;20427;-89
2023/03/25 08:55:02;;;;;;;;;;;;;;;20.18;40.35;99300.88;5012399;28;19922;-87
2023/03/25 08:57:27;;;;;;;;;;;;;;;20.25;39.60;99295.16;5012894;28;20395;-84
2023/03/25 08:59:53;;;;;;;;;;;;;;;19.98;39.23;99291.38;5011886;28;20449;-85
2023/03/25 09:02:18;;;;;;;;;;;;;;;19.57;40.12;99284.00;5012611;28;19985;-83
2023/03/25 09:04:43;;;;;;;;;;;;;;;19.49;40.37;99275.53;5012425;28;20059;-85
2023/03/25 09:07:09;;;;;;;;;;;;;;;20.07;39.97;99271.25;5011843;28;20162;-85
2023/03/25 09:09:37;;;;;;;;;;;;;;;19.47;39.50;99274.78;5013094;28;20312;-86
2023/03/25 09:12:03;;;;;;;;;;;;;;;19.32;40.69;99266.69;5014637;28;20339;-85
2023/03/25 09:14:29;;;;;;;;;;;;;;;19.44;44.06;99259.75;5008941;28;19913;-81
2023/03/25 09:16:54;;;;;;;;;;;;;;;19.40;39.81;99252.88;5012029;28;19928;-80
2023/03/25 09:19:20;;;;;;;;;;;;;;;19.71;42.63;99251.06;5012552;28;19913;-82
2023/03/25 09:21:45;;;;;;;;;;;;;;;19.74;41.79;99245.53;5011985;28;20332;-82
2023/03/25 09:24:11;;;;;;;;;;;;;;;20.03;39.82;99245.59;5012246;28;20000;-81
2023/03/25 09:26:36;;;;;;;;;;;;;;;19.90;40.54;99241.97;5010843;28;19918;-83
2023/03/25 09:29:02;;;;;;;;;;;;;;;19.79;40.77;99246.13;5012042;28;19921;-81
2023/03/25 09:31:27;;;;;;;;;;;;;;;20.04;39.40;99237.47;5012115;28;19913;-82
2023/03/25 09:33:52;;;;;;;;;;;;;;;20.19;39.78;99221.44;5012648;28;19940;-81
2023/03/25 09:36:18;;;;;;;;;;;;;;;20.28;39.49;99219.97;5012022;28;19936;-82
2023/03/25 09:38:43;;;;;;;;;;;;;;;20.20;40.26;99226.69;5005119;28;19917;-82
2023/03/25 09:41:22;;;;;;;;;;;;;;;19.94;41.13;99222.06;5000223;28;20307;-82
2023/03/25 09:43:57;;;;;;;;;;;;;;;19.63;42.10;99221.22;5003820;28;19940;-84
2023/03/25 09:46:22;;;;;;;;;;;;;;;19.77;41.85;99217.75;5010301;28;19917;-85
2023/03/25 09:48:49;;;;;;;;;;;;;;;19.85;41.58;99212.81;5011025;28;19921;-82
2023/03/25 09:51:19;;;;;;;;;;;;;;;19.86;40.33;99206.47;5042293;28;20368;-83
2023/03/25 09:53:46;;;;;;;;;;;;;;;20.05;40.77;99198.19;5010146;28;19920;-82
2023/03/25 09:56:27;;;;;;;;;;;;;;;20.15;39.55;99188.63;5008729;28;20006;-82
2023/03/25 09:58:59;;;;;;;;;;;;;;;20.16;41.60;99189.50;5009798;28;20040;-81
2023/03/25 10:01:36;;;;;;;;;;;;;;;20.22;42.56;99183.75;5010026;28;20000;-79
2023/03/25 10:04:17;;;;;;;;;;;;;;;20.05;40.63;99190.16;5011703;28;19921;-81
2023/03/25 10:06:54;;;;;;;;;;;;;;;19.96;42.27;99178.19;5007352;28;19952;-82
2023/03/25 10:09:20;;;;;;;;;;;;;;;20.04;41.03;99177.72;5010794;28;19924;-82
2023/03/25 10:11:51;;;;;;;;;;;;;;;20.13;40.14;99166.44;5011628;28;19913;-81
2023/03/25 10:14:27;;;;;;;;;;;;;;;20.26;39.76;99157.63;5011504;28;19917;-82
2023/03/25 10:17:08;;;;;;;;;;;;;;;20.37;39.37;99160.47;5010461;28;19917;-83
2023/03/25 10:19:33;;;;;;;;;;;;;;;20.28;40.95;99145.00;5010454;28;19932;-83
2023/03/25 10:22:02;;;;;;;;;;;;;;;20.50;40.56;99142.66;5006461;28;20376;-82
2023/03/25 10:24:36;;;;;;;;;;;;;;;20.75;41.96;99131.22;5003637;28;19924;-80
2023/03/25 10:27:04;;;;;;;;;;;;;;;20.64;39.96;99130.19;4997202;28;20384;-83
2023/03/25 10:29:30;;;;;;;;;;;;;;;20.55;39.31;99123.63;5010511;28;19944;-83
2023/03/25 10:31:59;;;;;;;;;;;;;;;20.49;38.68;99113.31;5013687;28;20424;-83
2023/03/25 10:34:45;;;;;;;;;;;;;;;20.75;38.18;99114.28;5012381;28;20395;-83
2023/03/25 10:37:12;;;;;;;;;;;;;;;21.06;38.45;99106.88;5009956;28;20423;-84
2023/03/25 10:39:42;;;;;;;;;;;;;;;21.26;37.57;99100.16;5006265;28;19940;-85
2023/03/25 10:42:30;;;;;;;;;;;;;;;21.28;37.15;99096.38;5003707;28;19927;-86
2023/03/25 10:44:56;;;;;;;;;;;;;;;21.51;36.35;99088.59;5008781;28;19913;-85
2023/03/25 10:47:25;;;;;;;;;;;;;;;21.49;37.84;99085.19;5009428;28;20469;-85
2023/03/25 10:49:51;;;;;;;;;;;;;;;21.51;37.45;99079.72;5010311;28;19921;-85
2023/03/25 10:52:16;;;;;;;;;;;;;;;20.85;39.82;99083.25;5041901;28;19972;-84
2023/03/25 10:54:44;;;;;;;;;;;;;;;20.96;38.89;99077.16;5010377;28;19968;-84
2023/03/25 10:57:14;;;;;;;;;;;;;;;21.24;38.16;99080.59;5010414;28;19964;-85
2023/03/25 10:59:44;;;;;;;;;;;;;;;21.22;37.73;99074.50;5010478;28;20087;-83
2023/03/25 11:02:16;;;;;;;;;;;;;;;21.51;37.11;99068.97;5025103;28;20351;-84
2023/03/25 11:04:42;;;;;;;;;;;;;;;21.62;37.21;99061.88;5010264;28;19967;-83
2023/03/25 11:07:29;;;;;;;;;;;;;;;21.79;36.26;99052.63;5010223;28;19914;-85
2023/03/25 11:10:07;;;;;;;;;;;;;;;21.79;37.01;99052.63;5012914;28;20003;-83
2023/03/25 11:12:32;;;;;;;;;;;;;;;21.73;36.67;99049.53;5010295;28;19951;-84
2023/03/25 11:15:00;;;;;;;;;;;;;;;21.76;37.19;99043.94;5010285;28;20336;-84
2023/03/25 11:17:26;;;;;;;;;;;;;;;21.86;36.54;99039.63;5009893;28;19909;-84
2023/03/25 11:19:51;;;;;;;;;;;;;;;21.86;36.04;99036.94;5010496;28;19936;-84
2023/03/25 11:22:28;;;;;;;;;;;;;;;21.86;35.76;99031.59;5009755;28;19959;-84
2023/03/25 11:25:11;;;;;;;;;;;;;;;21.91;36.62;99023.19;5010163;28;20380;-84
2023/03/25 11:27:43;;;;;;;;;;;;;;;22.20;36.08;99029.13;5009824;28;20007;-84
2023/03/25 11:30:19;;;;;;;;;;;;;;;22.54;37.04;99021.25;5010726;28;19921;-83
2023/03/25 11:32:55;;;;;;;;;;;;;;;22.40;36.68;99013.34;5010597;28;19914;-83
2023/03/25 11:35:25;;;;;;;;;;;;;;;22.79;34.76;99012.19;5010219;28;20632;-86
2023/03/25 11:38:01;;;;;;;;;;;;;;;22.68;35.35;99002.25;5010331;28;19918;-85
2023/03/25 11:40:28;;;;;;;;;;;;;;;22.87;34.28;98998.16;5010790;28;20380;-86
2023/03/25 11:42:57;;;;;;;;;;;;;;;22.94;34.53;98998.53;5010997;28;20383;-85
2023/03/25 11:45:23;;;;;;;;;;;;;;;22.97;34.60;98983.03;5010553;28;20011;-85
2023/03/25 11:47:49;;;;;;;;;;;;;;;23.07;35.50;98984.00;5010198;28;20004;-83
2023/03/25 11:50:23;;;;;;;;;;;;;;;23.12;34.30;98972.91;5010791;28;19920;-85
2023/03/25 11:52:50;;;;;;;;;;;;;;;22.81;35.06;98974.44;5010253;28;20026;-82
2023/03/25 11:55:23;;;;;;;;;;;;;;;23.05;34.31;98966.28;5012968;28;19921;-82
2023/03/25 11:57:49;;;;;;;;;;;;;;;22.51;35.42;98970.44;5013933;28;19913;-83
2023/03/25 12:00:23;;;;;;;;;;;;;;;22.71;36.07;98958.16;5014092;28;19921;-83
2023/03/25 12:02:58;;;;;;;;;;;;;;;22.85;35.09;98952.56;5014085;28;19913;-83
2023/03/25 12:05:23;;;;;;;;;;;;;;;22.85;34.80;98946.34;5014375;28;19953;-84
2023/03/25 12:07:50;;;;;;;;;;;;;;;23.11;33.93;98943.44;5013825;28;19952;-83
2023/03/25 12:10:15;;;;;;;;;;;;;;;23.21;34.51;98939.91;5013899;28;19964;-83
2023/03/25 12:12:41;;;;;;;;;;;;;;;23.45;33.86;98935.38;5013706;28;20376;-82
2023/03/25 12:15:14;;;;;;;;;;;;;;;23.46;32.51;98927.19;5013911;28;19913;-83
2023/03/25 12:17:39;;;;;;;;;;;;;;;23.18;34.03;98924.00;5013496;28;19917;-84
2023/03/25 12:20:19;;;;;;;;;;;;;;;23.49;32.63;98921.56;5014165;28;20015;-84
2023/03/25 12:22:54;;;;;;;;;;;;;;;23.36;34.60;98923.53;5013827;28;19968;-82
2023/03/25 12:25:25;;;;;;;;;;;;;;;23.49;33.93;98913.47;5014089;28;19917;-83
2023/03/25 12:28:14;;;;;;;;;;;;;;;23.50;33.75;98917.06;5012991;28;19913;-82
2023/03/25 12:30:58;;;;;;;;;;;;;;;23.46;33.97;98912.88;5001036;28;19975;-85
2023/03/25 12:33:27;;;;;;;;;;;;;;;23.00;34.19;98909.31;4993267;28;19913;-83
2023/03/25 12:35:52;;;;;;;;;;;;;;;23.08;32.98;98912.25;5024649;28;20350;-84
2023/03/25 12:38:17;;;;;;;;;;;;;;;23.35;32.60;98911.06;5000910;28;19910;-84
2023/03/25 12:40:42;;;;;;;;;;;;;;;23.53;32.19;98909.56;5000780;28;19914;-86
2023/03/25 12:43:19;;;;;;;;;;;;;;;23.67;33.87;98888.75;5012673;28;20025;-85
2023/03/25 12:45:47;;;;;;;;;;;;;;;23.52;33.80;98896.25;5012610;28;20000;-83
2023/03/25 12:48:36;;;;;;;;;;;;;;;23.47;34.44;98895.78;5012445;28;19936;-84
2023/03/25 12:51:20;;;;;;;;;;;;;;;23.55;35.40;98877.16;5068795;28;19919;-85
2023/03/25 12:53:56;;;;;;;;;;;;;;;23.60;34.10;98875.81;5068237;28;19912;-85
2023/03/25 12:56:35;;;;;;;;;;;;;;;23.42;35.48;98869.22;5067290;28;19913;-85
2023/03/25 12:59:08;;;;;;;;;;;;;;;23.58;35.89;98864.28;5062063;28;20445;-86